createdAt,value
2022-10-10T00:01:14.813Z,101608.34
2022-10-10T00:03:42.020Z,101615.38
2022-10-10T00:06:09.197Z,101604.47
2022-10-10T00:08:35.862Z,101602.16
2022-10-10T00:11:02.390Z,101598.31
2022-10-10T00:13:28.827Z,101589.91
2022-10-10T00:15:55.246Z,101585.94
2022-10-10T00:18:22.140Z,101576.34
2022-10-10T00:20:51.727Z,101583.03
2022-10-10T00:23:19.070Z,101577.31
2022-10-10T00:25:45.466Z,101575.16
2022-10-10T00:28:12.640Z,101579.41
2022-10-10T00:30:39.661Z,101582.59
2022-10-10T00:33:06.341Z,101571.53
2022-10-10T00:35:32.759Z,101559.19
2022-10-10T00:37:59.118Z,101571.94
2022-10-10T00:40:25.822Z,101566.47
2022-10-10T00:42:52.530Z,101563.81
2022-10-10T00:45:39.626Z,101565.13
2022-10-10T00:48:16.391Z,101569.28
2022-10-10T00:50:52.409Z,101550.72
2022-10-10T00:53:30.992Z,101567.22
2022-10-10T00:55:57.896Z,101553.88
2022-10-10T00:58:24.588Z,101553.66
2022-10-10T01:00:52.368Z,101543.22
2022-10-10T01:03:18.892Z,101548.06
2022-10-10T01:05:47.537Z,101547.94
2022-10-10T01:08:14.862Z,101540.19
2022-10-10T01:11:20.141Z,101530.84
2022-10-10T01:14:09.507Z,101532.66
2022-10-10T01:16:55.091Z,101530.59
2022-10-10T01:19:24.346Z,101529.63
2022-10-10T01:22:09.609Z,101526.75
2022-10-10T01:24:51.172Z,101521.63
2022-10-10T01:27:47.650Z,101513.88
2022-10-10T01:30:21.827Z,101510.13
2022-10-10T01:32:54.402Z,101516.91
2022-10-10T01:35:49.931Z,101512.53
2022-10-10T01:38:39.018Z,101502.38
2022-10-10T01:41:16.181Z,101509.53
2022-10-10T01:43:42.945Z,101499.34
2022-10-10T01:46:16.307Z,101505.50
2022-10-10T01:48:50.126Z,101495.81
2022-10-10T01:51:40.835Z,101494.97
2022-10-10T01:54:24.427Z,101496.19
2022-10-10T01:57:15.759Z,101495.59
2022-10-10T02:00:09.066Z,101488.56
2022-10-10T02:03:01.819Z,101489.66
2022-10-10T02:05:28.146Z,101485.63
2022-10-10T02:08:03.245Z,101491.22
2022-10-10T02:10:37.400Z,101486.25
2022-10-10T02:13:05.343Z,101492.66
2022-10-10T02:15:41.224Z,101482.97
2022-10-10T02:18:11.857Z,101482.25
2022-10-10T02:20:39.569Z,101466.88
2022-10-10T02:23:07.103Z,101473.03
2022-10-10T02:25:39.092Z,101473.03
2022-10-10T02:28:17.600Z,101480.06
2022-10-10T02:30:46.898Z,101464.56
2022-10-10T02:33:19.341Z,101458.38
2022-10-10T02:35:50.186Z,101454.13
2022-10-10T02:38:18.391Z,101456.56
2022-10-10T02:40:47.605Z,101440.22
2022-10-10T02:43:15.266Z,101451.59
2022-10-10T02:45:43.925Z,101439.50
2022-10-10T02:48:10.553Z,101443.84
2022-10-10T02:50:37.587Z,101438.66
2022-10-10T02:53:04.083Z,101440.47
2022-10-10T02:55:30.458Z,101424.09
2022-10-10T02:57:57.071Z,101420.69
2022-10-10T03:00:23.402Z,101429.19
2022-10-10T03:02:50.224Z,101416.22
2022-10-10T03:05:16.836Z,101421.19
2022-10-10T03:07:43.236Z,101409.06
2022-10-10T03:10:10.772Z,101418.16
2022-10-10T03:12:37.238Z,101419.84
2022-10-10T03:15:09.188Z,101414.78
2022-10-10T03:17:37.844Z,101416.72
2022-10-10T03:20:05.024Z,101412.34
2022-10-10T03:22:31.451Z,101401.31
2022-10-10T03:24:57.785Z,101403.97
2022-10-10T03:27:24.265Z,101392.38
2022-10-10T03:29:50.663Z,101393.69
2022-10-10T03:32:17.019Z,101394.28
2022-10-10T03:34:43.427Z,101397.19
2022-10-10T03:37:10.142Z,101394.28
2022-10-10T03:39:36.539Z,101387.78
2022-10-10T03:42:03.054Z,101396.34
2022-10-10T03:44:29.397Z,101394.69
2022-10-10T03:46:55.767Z,101398.41
2022-10-10T03:49:22.300Z,101380.75
2022-10-10T03:51:48.867Z,101384.84
2022-10-10T03:54:15.254Z,101382.91
2022-10-10T03:56:41.593Z,101377.94
2022-10-10T03:59:08.174Z,101355.78
2022-10-10T04:01:34.842Z,101376.59
2022-10-10T04:04:01.479Z,101380.13
2022-10-10T04:06:28.410Z,101374.28
2022-10-10T04:08:54.933Z,101371.13
2022-10-10T04:11:22.128Z,101378.88
2022-10-10T04:13:48.670Z,101369.31
2022-10-10T04:16:15.251Z,101344.63
2022-10-10T04:18:41.743Z,101356.84
2022-10-10T04:21:12.372Z,101361.59
2022-10-10T04:23:40.533Z,101343.66
2022-10-10T04:26:07.780Z,101356.94
2022-10-10T04:28:34.419Z,101354.19
2022-10-10T04:31:00.901Z,101348.22
2022-10-10T04:33:27.239Z,101339.28
2022-10-10T04:35:53.696Z,101333.84
2022-10-10T04:38:21.343Z,101335.16
2022-10-10T04:40:49.978Z,101336.16
2022-10-10T04:43:16.772Z,101332.75
2022-10-10T04:45:43.142Z,101320.13
2022-10-10T04:48:09.484Z,101331.91
2022-10-10T04:50:35.950Z,101325.75
2022-10-10T04:53:02.588Z,101314.72
2022-10-10T04:55:29.121Z,101313.84
2022-10-10T04:57:55.588Z,101328.75
2022-10-10T05:00:21.951Z,101318.34
2022-10-10T05:02:48.638Z,101305.63
2022-10-10T05:05:15.525Z,101315.91
2022-10-10T05:07:42.068Z,101315.31
2022-10-10T05:10:08.907Z,101305.88
2022-10-10T05:12:35.461Z,101312.03
2022-10-10T05:15:01.850Z,101295.78
2022-10-10T05:17:28.231Z,101302.81
2022-10-10T05:19:54.631Z,101306.31
2022-10-10T05:22:20.999Z,101301.09
2022-10-10T05:24:47.364Z,101304.50
2022-10-10T05:27:13.759Z,101305.47
2022-10-10T05:29:40.159Z,101293.72
2022-10-10T05:32:10.054Z,101298.72
2022-10-10T05:34:39.629Z,101289.44
2022-10-10T05:37:06.043Z,101290.97
2022-10-10T05:39:32.565Z,101295.63
2022-10-10T05:41:59.072Z,101301.72
2022-10-10T05:44:25.415Z,101295.63
2022-10-10T05:46:51.777Z,101295.63
2022-10-10T05:49:18.235Z,101289.44
2022-10-10T05:51:44.659Z,101292.09
2022-10-10T05:54:11.293Z,101272.41
2022-10-10T05:56:37.858Z,101286.16
2022-10-10T05:59:04.286Z,101285.88
2022-10-10T06:01:30.865Z,101283.09
2022-10-10T06:03:57.286Z,101273.59
2022-10-10T06:06:25.364Z,101290.97
2022-10-10T06:08:52.208Z,101281.28
2022-10-10T06:11:20.490Z,101274.03
2022-10-10T06:13:49.750Z,101264.47
2022-10-10T06:16:16.755Z,101279.97
2022-10-10T06:18:43.142Z,101280.81
2022-10-10T06:21:11.644Z,101280.56
2022-10-10T06:23:38.218Z,101266.78
2022-10-10T06:26:04.650Z,101279.38
2022-10-10T06:28:31.060Z,101284.25
2022-10-10T06:31:01.946Z,101283.97
2022-10-10T06:33:28.382Z,101287.25
2022-10-10T06:35:55.106Z,101273.84
2022-10-10T06:38:22.075Z,101268.41
2022-10-10T06:40:48.491Z,101277.63
2022-10-10T06:43:16.296Z,101266.25
2022-10-10T06:45:45.884Z,101270.00
2022-10-10T06:48:14.075Z,101273.28
2022-10-10T06:50:40.486Z,101265.41
2022-10-10T06:53:07.127Z,101264.78
2022-10-10T06:55:33.498Z,101248.25
2022-10-10T06:57:59.919Z,101268.56
2022-10-10T07:00:26.622Z,101259.25
2022-10-10T07:02:53.421Z,101260.56
2022-10-10T07:05:20.047Z,101261.19
2022-10-10T07:07:46.536Z,101252.72
2022-10-10T07:10:14.909Z,101250.50
2022-10-10T07:12:44.803Z,101253.31
2022-10-10T07:15:11.897Z,101248.44
2022-10-10T07:17:38.717Z,101252.06
2022-10-10T07:20:05.761Z,101244.41
2022-10-10T07:22:32.235Z,101226.72
2022-10-10T07:24:58.589Z,101247.38
2022-10-10T07:27:24.977Z,101244.34
2022-10-10T07:29:51.379Z,101230.06
2022-10-10T07:32:17.856Z,101226.88
2022-10-10T07:34:44.214Z,101243.41
2022-10-10T07:37:10.630Z,101239.00
2022-10-10T07:39:37.139Z,101235.09
2022-10-10T07:42:03.763Z,101233.88
2022-10-10T07:44:34.275Z,101247.75
2022-10-10T07:47:00.991Z,101243.75
2022-10-10T07:49:27.503Z,101224.81
2022-10-10T07:51:58.590Z,101240.75
2022-10-10T07:54:28.124Z,101233.38
2022-10-10T07:56:54.608Z,101237.75
2022-10-10T07:59:24.256Z,101242.75
2022-10-10T08:01:51.313Z,101233.09
2022-10-10T08:04:18.655Z,101239.91
2022-10-10T08:06:45.049Z,101244.28
2022-10-10T08:09:11.615Z,101240.94
2022-10-10T08:11:38.150Z,101247.03
2022-10-10T08:14:04.585Z,101233.81
2022-10-10T08:16:31.051Z,101238.91
2022-10-10T08:18:57.571Z,101222.16
2022-10-10T08:21:24.083Z,101227.13
2022-10-10T08:23:50.465Z,101223.63
2022-10-10T08:26:18.168Z,101232.75
2022-10-10T08:28:45.266Z,101233.75
2022-10-10T08:31:17.252Z,101220.63
2022-10-10T08:33:45.936Z,101222.72
2022-10-10T08:36:15.482Z,101218.34
2022-10-10T08:38:42.280Z,101216.06
2022-10-10T08:41:34.933Z,101214.72
2022-10-10T08:44:06.386Z,101207.81
2022-10-10T08:46:41.045Z,101203.09
2022-10-10T08:49:29.987Z,101210.22
2022-10-10T08:52:05.277Z,101210.41
2022-10-10T08:54:33.616Z,101193.88
2022-10-10T08:57:03.431Z,101194.44
2022-10-10T08:59:35.498Z,101191.09
2022-10-10T09:02:50.284Z,101185.03
2022-10-10T09:05:26.987Z,101188.16
2022-10-10T09:07:56.316Z,101192.97
2022-10-10T09:10:39.656Z,101194.91
2022-10-10T09:13:12.807Z,101192.13
2022-10-10T09:15:54.426Z,101184.34
2022-10-10T09:18:32.856Z,101184.81
2022-10-10T09:21:12.667Z,101184.22
2022-10-10T09:23:49.081Z,101179.22
2022-10-10T09:26:20.781Z,101180.28
2022-10-10T09:29:15.826Z,101178.50
2022-10-10T09:31:46.051Z,101182.91
2022-10-10T09:34:15.243Z,101177.25
2022-10-10T09:36:45.046Z,101184.66
2022-10-10T09:39:27.372Z,101179.94
2022-10-10T09:42:01.732Z,101175.03
2022-10-10T09:44:29.398Z,101177.31
2022-10-10T09:46:56.229Z,101171.81
2022-10-10T09:49:24.926Z,101159.50
2022-10-10T09:51:52.016Z,101161.41
2022-10-10T09:54:20.105Z,101165.53
2022-10-10T09:56:58.033Z,101162.41
2022-10-10T09:59:41.275Z,101168.78
2022-10-10T10:02:25.258Z,101164.53
2022-10-10T10:04:53.054Z,101167.06
2022-10-10T10:07:21.030Z,101167.97
2022-10-10T10:09:59.674Z,101162.84
2022-10-10T10:12:36.818Z,101157.91
2022-10-10T10:15:16.056Z,101156.31
2022-10-10T10:17:42.676Z,101155.31
2022-10-10T10:20:31.433Z,101146.91
2022-10-10T10:22:57.879Z,101156.91
2022-10-10T10:25:37.112Z,101144.25
2022-10-10T10:28:14.932Z,101145.78
2022-10-10T10:30:43.446Z,101130.41
2022-10-10T10:33:18.665Z,101145.38
2022-10-10T10:36:13.546Z,101145.94
2022-10-10T10:38:39.971Z,101140.34
2022-10-10T10:41:32.307Z,101128.31
2022-10-10T10:44:14.764Z,101146.59
2022-10-10T10:46:57.293Z,101137.63
2022-10-10T10:50:08.618Z,101137.25
2022-10-10T10:52:40.857Z,101144.19
2022-10-10T10:55:33.234Z,101135.84
2022-10-10T11:01:57.367Z,101141.69
2022-10-10T11:05:17.267Z,101141.91
2022-10-10T11:07:57.806Z,101119.13
2022-10-10T11:10:35.154Z,101127.06
2022-10-10T11:13:39.221Z,101122.88
2022-10-10T11:16:46.792Z,101113.00
2022-10-10T11:19:37.187Z,101122.41
2022-10-10T11:22:13.883Z,101118.19
2022-10-10T11:24:51.884Z,101116.47
2022-10-10T11:27:39.228Z,101123.97
2022-10-10T11:30:08.135Z,101117.25
2022-10-10T11:32:48.530Z,101118.09
2022-10-10T11:35:27.043Z,101114.22
2022-10-10T11:38:01.343Z,101100.66
2022-10-10T11:40:45.503Z,101110.31
2022-10-10T11:43:19.593Z,101105.09
2022-10-10T11:45:52.323Z,101120.97
2022-10-10T11:48:35.536Z,101101.31
2022-10-10T11:51:16.396Z,101114.50
2022-10-10T11:53:45.777Z,101096.75
2022-10-10T11:56:28.614Z,101098.22
2022-10-10T11:59:01.861Z,101116.19
2022-10-10T12:01:30.960Z,101124.75
2022-10-10T12:03:57.536Z,101111.78
2022-10-10T12:06:30.608Z,101120.16
2022-10-10T12:09:03.688Z,101119.31
2022-10-10T12:11:36.510Z,101101.34
2022-10-10T12:14:07.263Z,101097.78
2022-10-10T12:16:37.847Z,101113.69
2022-10-10T12:19:07.091Z,101103.22
2022-10-10T12:21:56.091Z,101104.06
2022-10-10T12:24:24.213Z,101104.47
2022-10-10T12:26:56.643Z,101112.63
2022-10-10T12:30:01.618Z,101110.72
2022-10-10T12:32:41.020Z,101093.16
2022-10-10T12:35:29.335Z,101094.22
2022-10-10T12:38:04.720Z,101090.69
2022-10-10T12:40:32.893Z,101077.09
2022-10-10T12:43:02.142Z,101083.16
2022-10-10T12:45:28.532Z,101090.28
2022-10-10T12:48:06.367Z,101080.66
2022-10-10T12:50:39.749Z,101093.00
2022-10-10T12:53:18.009Z,101096.16
2022-10-10T12:55:51.872Z,101089.03
2022-10-10T12:58:27.103Z,101084.03
2022-10-10T13:00:57.909Z,101092.38
2022-10-10T13:03:27.210Z,101099.25
2022-10-10T13:06:03.009Z,101094.88
2022-10-10T13:08:30.586Z,101094.88
2022-10-10T13:11:11.969Z,101089.03
2022-10-10T13:13:40.421Z,101097.78
2022-10-10T13:16:13.127Z,101105.72
2022-10-10T13:18:52.598Z,101102.41
2022-10-10T13:21:23.693Z,101094.44
2022-10-10T13:26:44.875Z,101091.53
2022-10-10T13:29:32.434Z,101082.09
2022-10-10T13:32:23.995Z,101085.47
2022-10-10T13:34:55.535Z,101082.72
2022-10-10T13:37:22.885Z,101083.38
2022-10-10T13:39:50.850Z,101094.84
2022-10-10T13:42:39.714Z,101098.19
2022-10-10T13:45:38.131Z,101095.25
2022-10-10T13:48:04.445Z,101083.91
2022-10-10T13:50:35.371Z,101099.09
2022-10-10T13:53:27.147Z,101100.75
2022-10-10T13:56:10.286Z,101095.47
2022-10-10T13:58:56.188Z,101091.81
2022-10-10T14:01:43.556Z,101099.69
2022-10-10T14:04:12.916Z,101101.66
2022-10-10T14:06:41.063Z,101078.41
2022-10-10T14:09:15.778Z,101094.03
2022-10-10T14:11:43.403Z,101088.34
2022-10-10T14:14:17.632Z,101103.56
2022-10-10T14:16:43.975Z,101102.09
2022-10-10T14:19:19.412Z,101103.94
2022-10-10T14:21:45.769Z,101109.16
2022-10-10T14:24:12.182Z,101106.19
2022-10-10T14:26:38.810Z,101108.44
2022-10-10T14:29:10.443Z,101100.47
2022-10-10T14:31:36.852Z,101107.75
2022-10-10T14:34:03.284Z,101113.75
2022-10-10T14:36:29.686Z,101103.28
2022-10-10T14:38:56.108Z,101101.81
2022-10-10T14:41:22.622Z,101108.06
2022-10-10T14:43:49.003Z,101105.13
2022-10-10T14:46:19.629Z,101119.69
2022-10-10T14:48:46.876Z,101115.03
2022-10-10T14:51:34.205Z,101108.13
2022-10-10T14:54:11.870Z,101111.63
2022-10-10T14:57:08.634Z,101105.00
2022-10-10T14:59:49.254Z,101112.56
2022-10-10T15:02:15.546Z,101108.50
2022-10-10T15:04:42.102Z,101092.50
2022-10-10T15:07:14.247Z,101102.13
2022-10-10T15:09:51.523Z,101107.91
2022-10-10T15:12:27.820Z,101112.00
2022-10-10T15:14:54.214Z,101101.50
2022-10-10T15:17:20.640Z,101096.09
2022-10-10T15:19:47.012Z,101093.63
2022-10-10T15:22:13.359Z,101095.66
2022-10-10T15:24:39.719Z,101107.69
2022-10-10T15:27:06.055Z,101092.81
2022-10-10T15:29:32.539Z,101114.72
2022-10-10T15:32:00.518Z,101104.09
2022-10-10T15:34:27.228Z,101122.91
2022-10-10T15:36:56.658Z,101109.69
2022-10-10T15:39:23.193Z,101131.13
2022-10-10T15:41:49.557Z,101128.25
2022-10-10T15:44:18.133Z,101140.31
2022-10-10T15:46:45.307Z,101124.38
2022-10-10T15:49:13.450Z,101137.97
2022-10-10T15:51:45.159Z,101144.44
2022-10-10T15:54:12.431Z,101152.72
2022-10-10T15:56:42.230Z,101154.28
2022-10-10T15:59:09.490Z,101150.75
2022-10-10T16:01:36.130Z,101147.00
2022-10-10T16:04:04.592Z,101172.50
2022-10-10T16:06:31.034Z,101168.41
2022-10-10T16:09:23.411Z,101185.81
2022-10-10T16:11:43.841Z,101168.06
2022-10-10T16:14:10.695Z,101175.94
2022-10-10T16:16:37.155Z,101188.59
2022-10-10T16:19:03.695Z,101202.78
2022-10-10T16:21:31.534Z,101189.09
2022-10-10T16:23:58.307Z,101187.81
2022-10-10T16:26:29.177Z,101206.25
2022-10-10T16:28:56.762Z,101214.78
2022-10-10T16:31:25.000Z,101212.47
2022-10-10T16:33:52.174Z,101223.31
2022-10-10T16:36:21.859Z,101215.22
2022-10-10T16:38:49.984Z,101220.81
2022-10-10T16:41:42.620Z,101211.75
2022-10-10T16:44:04.562Z,101230.94
2022-10-10T16:46:30.993Z,101227.22
2022-10-10T16:48:59.515Z,101224.19
2022-10-10T16:51:28.332Z,101242.84
2022-10-10T16:53:55.530Z,101233.41
2022-10-10T16:56:22.324Z,101235.84
2022-10-10T16:58:50.616Z,101255.16
2022-10-10T17:01:23.617Z,101251.94
2022-10-10T17:03:51.340Z,101274.59
2022-10-10T17:06:20.994Z,101260.09
2022-10-10T17:08:49.455Z,101275.22
2022-10-10T17:11:17.691Z,101262.94
2022-10-10T17:13:44.874Z,101291.66
2022-10-10T17:19:03.891Z,101304.91
2022-10-10T17:21:31.354Z,101328.41
2022-10-10T17:24:03.318Z,101336.25
2022-10-10T17:26:29.694Z,101342.13
2022-10-10T17:28:57.694Z,101358.19
2022-10-10T17:31:25.274Z,101357.44
2022-10-10T17:33:54.319Z,101371.13
2022-10-10T17:36:23.747Z,101368.50
2022-10-10T17:38:50.491Z,101376.25
2022-10-10T17:41:18.432Z,101370.00
2022-10-10T17:43:45.565Z,101377.16
2022-10-10T17:46:35.750Z,101389.31
2022-10-10T17:49:04.971Z,101396.59
2022-10-10T17:51:31.388Z,101399.63
2022-10-10T17:54:01.594Z,101408.97
2022-10-10T17:56:28.000Z,101412.19
2022-10-10T17:58:54.700Z,101420.88
2022-10-10T18:01:22.145Z,101413.72
2022-10-10T18:03:49.012Z,101413.31
2022-10-10T18:06:21.325Z,101419.97
2022-10-10T18:08:51.939Z,101397.72
2022-10-10T18:11:22.174Z,101417.47
2022-10-10T18:13:48.996Z,101429.44
2022-10-10T18:16:18.670Z,101425.66
2022-10-10T18:18:50.725Z,101429.94
2022-10-10T18:21:18.927Z,101423.28
2022-10-10T18:23:45.505Z,101428.94
2022-10-10T18:26:15.398Z,101438.53
2022-10-10T18:28:42.629Z,101436.97
2022-10-10T18:31:17.934Z,101448.13
2022-10-10T18:33:44.997Z,101441.06
2022-10-10T18:36:14.494Z,101464.31
2022-10-10T18:38:41.511Z,101470.38
2022-10-10T18:41:13.571Z,101477.28
2022-10-10T18:43:40.696Z,101467.94
2022-10-10T18:46:09.037Z,101476.69
2022-10-10T18:48:36.480Z,101475.84
2022-10-10T18:51:11.834Z,101484.00
2022-10-10T18:53:47.488Z,101489.03
2022-10-10T18:56:16.557Z,101481.84
2022-10-10T18:58:42.955Z,101466.44
2022-10-10T19:01:12.779Z,101493.25
2022-10-10T19:03:40.471Z,101498.00
2022-10-10T19:06:09.737Z,101494.88
2022-10-10T19:08:37.174Z,101495.13
2022-10-10T19:11:05.956Z,101508.63
2022-10-10T19:13:33.649Z,101514.53
2022-10-10T19:16:04.780Z,101521.00
2022-10-10T19:18:31.275Z,101522.50
2022-10-10T19:21:04.415Z,101521.06
2022-10-10T19:23:32.130Z,101540.53
2022-10-10T19:26:02.268Z,101529.09
2022-10-10T19:28:28.769Z,101518.91
2022-10-10T19:30:55.771Z,101545.13
2022-10-10T19:33:22.243Z,101541.59
2022-10-10T19:35:51.423Z,101538.22
2022-10-10T19:38:19.278Z,101547.47
2022-10-10T19:40:47.115Z,101537.69
2022-10-10T19:43:14.521Z,101559.72
2022-10-10T19:45:42.565Z,101563.63
2022-10-10T19:48:09.137Z,101567.03
2022-10-10T19:50:40.696Z,101560.09
2022-10-10T19:53:07.769Z,101558.66
2022-10-10T19:55:34.238Z,101576.75
2022-10-10T19:58:00.633Z,101576.75
2022-10-10T20:00:27.357Z,101579.28
2022-10-10T20:02:53.695Z,101578.44
2022-10-10T20:05:20.847Z,101577.84
2022-10-10T20:07:50.433Z,101594.34
2022-10-10T20:10:17.568Z,101598.00
2022-10-10T20:12:43.972Z,101595.47
2022-10-10T20:15:10.779Z,101601.78
2022-10-10T20:17:37.568Z,101598.63
2022-10-10T20:20:05.312Z,101609.94
2022-10-10T20:22:34.282Z,101599.44
2022-10-10T20:25:01.329Z,101594.22
2022-10-10T20:27:31.251Z,101613.75
2022-10-10T20:29:58.239Z,101613.91
2022-10-10T20:32:24.673Z,101626.03
2022-10-10T20:34:51.040Z,101635.03
2022-10-10T20:37:17.376Z,101628.47
2022-10-10T20:39:43.738Z,101615.91
2022-10-10T20:42:10.222Z,101639.16
2022-10-10T20:44:36.809Z,101632.41
2022-10-10T20:47:03.332Z,101639.44
2022-10-10T20:49:29.841Z,101644.91
2022-10-10T20:51:56.216Z,101638.63
2022-10-10T20:54:24.617Z,101660.47
2022-10-10T20:56:51.434Z,101649.59
2022-10-10T20:59:19.410Z,101653.69
2022-10-10T21:01:45.936Z,101673.22
2022-10-10T21:04:14.039Z,101666.00
2022-10-10T21:06:42.697Z,101687.69
2022-10-10T21:09:10.886Z,101686.84
2022-10-10T21:11:39.026Z,101665.50
2022-10-10T21:14:06.545Z,101681.03
2022-10-10T21:16:36.218Z,101689.66
2022-10-10T21:19:03.489Z,101667.72
2022-10-10T21:21:32.482Z,101672.06
2022-10-10T21:23:59.491Z,101686.88
2022-10-10T21:26:28.156Z,101693.69
2022-10-10T21:28:55.838Z,101698.53
2022-10-10T21:31:31.225Z,101685.56
2022-10-10T21:33:59.949Z,101695.88
2022-10-10T21:36:26.729Z,101697.69
2022-10-10T21:38:55.890Z,101698.53
2022-10-10T21:41:23.649Z,101701.09
2022-10-10T21:43:54.599Z,101709.81
2022-10-10T21:46:24.338Z,101701.59
2022-10-10T21:48:53.806Z,101715.03
2022-10-10T21:51:21.464Z,101723.78
2022-10-10T21:53:48.459Z,101728.41
2022-10-10T21:56:15.244Z,101730.22
2022-10-10T21:58:43.764Z,101728.03
2022-10-10T22:01:13.230Z,101739.44
2022-10-10T22:03:39.635Z,101725.16
2022-10-10T22:06:10.500Z,101737.91
2022-10-10T22:08:38.155Z,101746.28
2022-10-10T22:11:07.504Z,101743.72
2022-10-10T22:13:33.990Z,101749.94
2022-10-10T22:16:01.102Z,101742.38
2022-10-10T22:18:27.664Z,101749.31
2022-10-10T22:20:54.369Z,101753.06
2022-10-10T22:23:21.282Z,101752.94
2022-10-10T22:25:49.659Z,101762.78
2022-10-10T22:28:16.865Z,101771.88
2022-10-10T22:30:43.962Z,101763.16
2022-10-10T22:33:10.687Z,101769.44
2022-10-10T22:35:37.274Z,101771.66
2022-10-10T22:38:04.172Z,101768.59
2022-10-10T22:40:30.977Z,101784.91
2022-10-10T22:42:57.864Z,101791.31
2022-10-10T22:45:24.611Z,101776.75
2022-10-10T22:47:51.061Z,101784.41
2022-10-10T22:50:18.383Z,101789.84
2022-10-10T22:52:45.096Z,101797.00
2022-10-10T22:55:17.221Z,101792.75
2022-10-10T22:57:44.742Z,101792.41
2022-10-10T23:00:12.338Z,101789.25
2022-10-10T23:02:39.051Z,101774.81
2022-10-10T23:05:06.084Z,101789.25
2022-10-10T23:07:32.778Z,101789.72
2022-10-10T23:09:59.180Z,101801.84
2022-10-10T23:12:25.556Z,101802.59
2022-10-10T23:14:52.028Z,101784.41
2022-10-10T23:17:18.457Z,101812.28
2022-10-10T23:19:44.885Z,101801.84
2022-10-10T23:22:12.789Z,101801.72
2022-10-10T23:24:39.921Z,101818.25
2022-10-10T23:27:06.377Z,101807.19
2022-10-10T23:29:33.101Z,101814.00
2022-10-10T23:31:59.599Z,101816.66
2022-10-10T23:34:26.131Z,101809.25
2022-10-10T23:36:52.804Z,101824.78
2022-10-10T23:39:19.188Z,101824.78
2022-10-10T23:41:45.674Z,101822.34
2022-10-10T23:44:12.138Z,101828.53
2022-10-10T23:46:38.780Z,101834.00
2022-10-10T23:49:05.148Z,101819.44
2022-10-10T23:51:32.150Z,101837.03
2022-10-10T23:53:58.715Z,101837.03
2022-10-10T23:56:25.226Z,101845.16
2022-10-10T23:58:51.666Z,101845.63
